Time;durP1;ratioP1;P1;durP2;ratioP2;P2;SDS_P1;SDS_P2;PMS_P1;PMS_P2;Temp;Humidity;BMP_temperature;BMP_pressure;BME280_temperature;BME280_humidity;BME280_pressure;Samples;Min_cycle;Max_cycle;Signal;HPM_P1;HPM_P2
2024/04/04 00:01:55;;;;;;;1.53;1.43;;;;;;;11.04;100.00;100151.25;4861938;29;20451;-82
2024/04/04 00:04:22;;;;;;;1.00;0.83;;;;;;;10.95;100.00;100153.44;4861568;29;20458;-83
2024/04/04 00:06:50;;;;;;;2.37;1.23;;;;;;;11.00;100.00;100147.34;4861831;29;20440;-83
2024/04/04 00:09:17;;;;;;;1.47;1.37;;;;;;;11.15;100.00;100153.25;4861903;29;20444;-82
2024/04/04 00:11:47;;;;;;;2.30;1.20;;;;;;;11.12;100.00;100146.41;4862285;29;20451;-83
2024/04/04 00:14:13;;;;;;;1.63;1.00;;;;;;;11.10;100.00;100147.66;4875420;29;20475;-82
2024/04/04 00:16:42;;;;;;;1.97;0.80;;;;;;;11.01;100.00;100139.03;4872011;29;20486;-82
2024/04/04 00:19:10;;;;;;;1.30;0.90;;;;;;;11.05;100.00;100142.09;4858655;29;20417;-83
2024/04/04 00:21:38;;;;;;;1.60;0.80;;;;;;;11.16;100.00;100141.38;4847813;29;20424;-82
2024/04/04 00:24:06;;;;;;;1.60;1.00;;;;;;;11.10;100.00;100147.66;4856268;29;20468;-83
2024/04/04 00:26:34;;;;;;;0.80;0.60;;;;;;;11.14;100.00;100148.88;4864177;29;20441;-81
2024/04/04 00:29:03;;;;;;;1.13;1.03;;;;;;;11.13;100.00;100142.66;4833533;29;20446;-82
2024/04/04 00:31:31;;;;;;;1.00;0.90;;;;;;;11.01;100.00;100140.91;4855933;29;20471;-82
2024/04/04 00:33:58;;;;;;;1.27;1.17;;;;;;;11.05;100.00;100147.50;4842168;29;20441;-83
2024/04/04 00:36:26;;;;;;;0.90;0.70;;;;;;;11.27;100.00;100146.06;4845812;29;20452;-83
2024/04/04 00:38:53;;;;;;;1.30;1.20;;;;;;;11.15;100.00;100150.53;4852959;29;20518;-82
2024/04/04 00:41:21;;;;;;;1.10;0.80;;;;;;;11.06;100.00;100150.00;4850967;29;20423;-82
2024/04/04 00:43:48;;;;;;;2.03;0.90;;;;;;;11.05;100.00;100152.94;4851037;29;20457;-82
2024/04/04 00:46:17;;;;;;;1.33;1.00;;;;;;;11.03;100.00;100149.63;4866823;29;20541;-82
2024/04/04 00:48:44;;;;;;;0.90;0.70;;;;;;;11.24;100.00;100160.03;4858053;29;20414;-82
2024/04/04 00:51:12;;;;;;;1.33;1.10;;;;;;;11.10;100.00;100147.66;4858121;29;20492;-82
2024/04/04 00:53:40;;;;;;;1.27;0.83;;;;;;;11.18;100.00;100147.41;4857504;29;20448;-82
2024/04/04 00:56:08;;;;;;;2.47;0.87;;;;;;;11.28;100.00;100147.69;4847036;29;20441;-82
2024/04/04 00:58:36;;;;;;;1.00;0.60;;;;;;;11.19;100.00;100143.63;4855907;29;20684;-82
2024/04/04 01:01:04;;;;;;;1.73;0.87;;;;;;;11.26;100.00;100144.38;4856817;29;20465;-82
2024/04/04 01:03:32;;;;;;;0.90;0.70;;;;;;;11.31;100.00;100147.25;4861383;29;20447;-82
2024/04/04 01:06:01;;;;;;;1.00;0.70;;;;;;;11.20;100.00;100148.00;4854244;29;20446;-82
2024/04/04 01:08:32;;;;;;;2.07;1.03;;;;;;;11.25;100.00;100148.16;4854225;29;20456;-82
2024/04/04 01:11:00;;;;;;;0.90;0.70;;;;;;;11.18;100.00;100152.81;4856408;29;20428;-82
2024/04/04 01:13:27;;;;;;;2.00;1.30;;;;;;;11.25;100.00;100148.97;4839531;29;20471;-82
2024/04/04 01:15:55;;;;;;;1.30;1.00;;;;;;;11.31;100.00;100139.13;4836447;29;20965;-81
2024/04/04 01:18:22;;;;;;;2.23;1.00;;;;;;;11.19;100.00;100152.56;4845704;29;20400;-82
2024/04/04 01:20:51;;;;;;;0.97;0.60;;;;;;;11.10;100.00;100153.09;4854432;29;20810;-82
2024/04/04 01:23:18;;;;;;;1.20;0.80;;;;;;;11.08;100.00;100152.50;4854596;29;20476;-83
2024/04/04 01:25:48;;;;;;;0.90;0.60;;;;;;;10.84;100.00;100141.44;4853161;29;20554;-83
2024/04/04 01:28:15;;;;;;;1.37;0.80;;;;;;;10.86;100.00;100142.06;4853545;29;20576;-81
2024/04/04 01:30:43;;;;;;;1.00;0.70;;;;;;;10.76;100.00;100139.03;4853611;29;20516;-81
2024/04/04 01:33:10;;;;;;;1.20;0.97;;;;;;;10.73;100.00;100135.94;4859598;29;20429;-80
2024/04/04 01:35:38;;;;;;;0.90;0.70;;;;;;;10.68;100.00;100135.78;4866976;29;20463;-80
2024/04/04 01:38:05;;;;;;;1.90;1.20;;;;;;;10.68;100.00;100139.31;4850085;29;20519;-80
2024/04/04 01:40:33;;;;;;;2.50;1.60;;;;;;;10.72;100.00;100131.59;4850817;29;20420;-80
2024/04/04 01:43:02;;;;;;;0.93;0.73;;;;;;;10.67;100.00;100140.38;4868083;29;20487;-79
2024/04/04 01:45:30;;;;;;;0.90;0.77;;;;;;;10.65;100.00;100131.63;4862392;29;20467;-82
2024/04/04 01:47:57;;;;;;;1.37;0.90;;;;;;;10.63;100.00;100133.75;4855184;29;20515;-81
2024/04/04 01:50:25;;;;;;;1.33;1.23;;;;;;;10.62;100.00;100134.78;4851401;29;20429;-82
2024/04/04 01:52:52;;;;;;;1.73;1.40;;;;;;;10.67;100.00;100145.78;4860345;29;20535;-82
2024/04/04 01:55:20;;;;;;;1.13;0.90;;;;;;;10.83;100.00;100142.53;4860418;29;20472;-82
2024/04/04 01:57:47;;;;;;;0.80;0.60;;;;;;;10.92;100.00;100147.66;4847913;29;20564;-83
2024/04/04 02:00:18;;;;;;;2.23;1.67;;;;;;;10.89;100.00;100147.03;4850108;29;20444;-82
2024/04/04 02:02:45;;;;;;;1.67;1.57;;;;;;;10.74;100.00;100145.72;4848166;29;20513;-83
2024/04/04 02:05:12;;;;;;;1.10;0.70;;;;;;;10.71;100.00;100135.34;4839328;29;20492;-83
2024/04/04 02:07:40;;;;;;;1.10;0.67;;;;;;;10.80;100.00;100140.25;4850487;29;20471;-82
2024/04/04 02:10:08;;;;;;;1.50;0.73;;;;;;;10.80;100.00;100137.53;4849376;29;20466;-82
2024/04/04 02:12:35;;;;;;;1.67;1.23;;;;;;;10.88;100.00;100131.88;4861355;29;20523;-82
2024/04/04 02:15:03;;;;;;;1.27;0.80;;;;;;;10.97;100.00;100136.97;4839179;29;20934;-82
2024/04/04 02:17:31;;;;;;;1.43;0.87;;;;;;;11.01;100.00;100135.47;4838553;29;20431;-82
2024/04/04 02:19:59;;;;;;;1.63;0.87;;;;;;;10.99;100.00;100133.00;4837297;29;20448;-81
2024/04/04 02:22:26;;;;;;;1.30;1.20;;;;;;;10.98;100.00;100130.53;4865602;29;20443;-82
2024/04/04 02:24:54;;;;;;;1.00;0.70;;;;;;;10.96;100.00;100132.63;4856698;29;20484;-83
2024/04/04 02:27:21;;;;;;;2.40;1.30;;;;;;;10.94;100.00;100129.31;4839792;29;20528;-82
2024/04/04 02:29:49;;;;;;;1.30;1.13;;;;;;;10.90;100.00;100124.34;4857708;29;20528;-82
2024/04/04 02:32:16;;;;;;;2.07;1.43;;;;;;;10.87;100.00;100124.78;4847179;29;20440;-82
2024/04/04 02:34:45;;;;;;;1.07;0.97;;;;;;;10.88;100.00;100131.88;4844744;29;20449;-81
2024/04/04 02:37:12;;;;;;;0.93;0.73;;;;;;;10.89;100.00;100128.09;4882640;29;20436;-81
2024/04/04 02:39:40;;;;;;;2.30;1.40;;;;;;;10.82;100.00;100127.34;4882903;29;20468;-81
2024/04/04 02:42:08;;;;;;;5.30;1.50;;;;;;;10.88;100.00;100131.88;4874218;29;20436;-81
2024/04/04 02:44:36;;;;;;;0.90;0.60;;;;;;;10.85;100.00;100136.88;4867460;29;20484;-81
2024/04/04 02:47:03;;;;;;;1.10;0.70;;;;;;;10.81;100.00;100124.84;4862382;29;20444;-83
2024/04/04 02:49:31;;;;;;;1.97;1.17;;;;;;;10.83;100.00;100128.16;4856536;29;20442;-82
2024/04/04 02:51:59;;;;;;;1.50;1.20;;;;;;;10.92;100.00;100131.41;4860192;29;20516;-82
2024/04/04 02:54:28;;;;;;;1.40;0.97;;;;;;;10.93;100.00;100131.19;4860308;29;20491;-82
2024/04/04 02:56:54;;;;;;;1.80;1.07;;;;;;;10.83;100.00;100126.28;4860370;29;20443;-82
2024/04/04 02:59:22;;;;;;;1.03;0.90;;;;;;;10.85;100.00;100129.59;4854478;29;20607;-83
2024/04/04 03:01:49;;;;;;;2.90;1.37;;;;;;;10.72;100.00;100127.00;4860846;29;20432;-83
2024/04/04 03:04:18;;;;;;;1.87;1.37;;;;;;;10.73;100.00;100123.25;4860371;29;20471;-82
2024/04/04 03:06:45;;;;;;;1.07;0.97;;;;;;;10.79;100.00;100126.97;4845668;29;20462;-82
2024/04/04 03:09:16;;;;;;;2.63;1.40;;;;;;;10.76;100.00;100117.38;4862548;29;20424;-83
2024/04/04 03:11:43;;;;;;;2.27;1.37;;;;;;;10.80;100.00;100125.88;4846171;29;20939;-83
2024/04/04 03:14:11;;;;;;;1.57;1.47;;;;;;;10.78;100.00;100120.72;4860638;29;20422;-82
2024/04/04 03:16:38;;;;;;;1.63;0.97;;;;;;;10.75;100.00;100129.25;4853592;29;20451;-82
2024/04/04 03:19:06;;;;;;;2.00;1.23;;;;;;;10.74;100.00;100130.34;4853777;29;21010;-82
2024/04/04 03:21:33;;;;;;;1.20;0.87;;;;;;;10.60;100.00;100126.06;4849230;29;20437;-82
2024/04/04 03:24:01;;;;;;;2.23;1.60;;;;;;;10.42;100.00;100131.41;4866182;29;20463;-81
2024/04/04 03:26:30;;;;;;;1.23;1.00;;;;;;;10.28;100.00;100130.69;4862461;29;20474;-83
2024/04/04 03:28:58;;;;;;;1.27;0.90;;;;;;;10.13;100.00;100127.41;4862598;29;20440;-83
2024/04/04 03:31:25;;;;;;;2.73;1.63;;;;;;;10.13;100.00;100126.59;4873898;29;20459;-82
2024/04/04 03:33:53;;;;;;;1.33;1.10;;;;;;;9.98;100.00;100127.72;4867646;29;20431;-81
2024/04/04 03:36:20;;;;;;;1.23;1.13;;;;;;;9.85;100.00;100130.50;4868887;29;20445;-81
2024/04/04 03:38:50;;;;;;;1.50;1.10;;;;;;;9.78;100.00;100126.97;4875107;29;20440;-81
2024/04/04 03:41:22;;;;;;;3.47;1.03;;;;;;;9.75;100.00;100129.28;4868558;29;20438;-81
2024/04/04 03:43:58;;;;;;;2.70;1.77;;;;;;;9.73;100.00;100126.81;4849008;29;20575;-83
2024/04/04 03:46:37;;;;;;;1.30;1.03;;;;;;;9.73;100.00;100132.19;4855172;29;20467;-82
2024/04/04 03:49:06;;;;;;;1.33;1.07;;;;;;;9.69;100.00;100125.56;4831976;29;20464;-82
2024/04/04 03:51:36;;;;;;;1.80;1.23;;;;;;;9.85;100.00;100141.31;4858286;29;20480;-84
2024/04/04 03:54:04;;;;;;;1.70;1.60;;;;;;;9.89;100.00;100141.69;4864426;29;20414;-81
2024/04/04 03:56:31;;;;;;;1.73;1.17;;;;;;;9.89;100.00;100137.13;4853197;29;20897;-82
2024/04/04 03:59:01;;;;;;;1.53;1.20;;;;;;;9.83;100.00;100143.38;4855699;29;20419;-82
2024/04/04 04:01:28;;;;;;;1.35;1.00;;;;;;;9.85;100.00;100145.88;4858894;29;20447;-80
2024/04/04 04:03:56;;;;;;;2.87;1.57;;;;;;;9.78;100.00;100156.72;4854437;29;20238;-81
2024/04/04 04:06:24;;;;;;;2.77;2.00;;;;;;;9.75;100.00;100157.16;4865829;29;20436;-81
2024/04/04 04:08:52;;;;;;;2.40;1.33;;;;;;;9.67;100.00;100154.69;4869978;29;20512;-82
2024/04/04 04:11:21;;;;;;;1.30;0.93;;;;;;;9.71;100.00;100161.31;4858185;29;20945;-83
2024/04/04 04:13:49;;;;;;;2.13;1.80;;;;;;;9.63;100.00;100161.56;4854440;29;20399;-83
2024/04/04 04:16:18;;;;;;;1.10;1.00;;;;;;;9.75;100.00;100169.81;4858964;29;20461;-83
2024/04/04 04:18:45;;;;;;;1.40;1.03;;;;;;;9.77;100.00;100174.00;4864514;29;20499;-83
2024/04/04 04:21:20;;;;;;;1.63;1.23;;;;;;;9.82;100.00;100176.88;4853799;29;20440;-82
2024/04/04 04:23:49;;;;;;;2.33;1.87;;;;;;;9.99;100.00;100180.72;4837146;29;20473;-82
2024/04/04 04:26:16;;;;;;;2.07;1.63;;;;;;;10.19;100.00;100174.41;4848880;29;20462;-83
2024/04/04 04:28:44;;;;;;;6.43;1.60;;;;;;;10.29;100.00;100182.88;4865656;29;20442;-82
2024/04/04 04:31:25;;;;;;;1.80;1.40;;;;;;;10.32;100.00;100185.16;4852692;29;20489;-82
2024/04/04 04:33:53;;;;;;;2.27;1.70;;;;;;;10.42;100.00;100186.34;4853415;29;20444;-82
2024/04/04 04:36:22;;;;;;;1.40;1.30;;;;;;;10.37;100.00;100188.03;4835384;29;20918;-83
2024/04/04 04:38:50;;;;;;;1.80;1.37;;;;;;;10.49;100.00;100189.00;4854078;29;20438;-82
2024/04/04 04:41:19;;;;;;;2.10;1.90;;;;;;;10.51;100.00;100181.47;4844913;29;20463;-82
2024/04/04 04:43:50;;;;;;;1.60;1.50;;;;;;;10.54;100.00;100189.19;4845129;29;20861;-83
2024/04/04 04:46:18;;;;;;;1.83;1.70;;;;;;;10.62;100.00;100186.19;4851592;29;20471;-83
2024/04/04 04:48:48;;;;;;;2.27;2.17;;;;;;;10.66;100.00;100190.13;4848975;29;20961;-83
2024/04/04 04:51:17;;;;;;;1.30;1.10;;;;;;;10.75;100.00;100194.19;4846416;29;20480;-83
2024/04/04 04:53:47;;;;;;;1.50;1.10;;;;;;;10.77;100.00;100189.41;4859470;29;20487;-84
2024/04/04 04:56:15;;;;;;;2.20;0.90;;;;;;;10.75;100.00;100198.78;4847933;29;20582;-83
2024/04/04 04:58:43;;;;;;;2.40;1.20;;;;;;;10.68;100.00;100190.75;4856413;29;20444;-83
2024/04/04 05:01:10;;;;;;;3.07;1.53;;;;;;;10.78;100.00;100193.78;4854178;29;20452;-82
2024/04/04 05:03:38;;;;;;;1.37;1.27;;;;;;;10.83;100.00;100193.13;4858282;29;20464;-82
2024/04/04 05:06:07;;;;;;;1.10;0.97;;;;;;;10.80;100.00;100197.06;4839568;29;20476;-82
2024/04/04 05:08:35;;;;;;;1.90;1.67;;;;;;;10.81;100.00;100206.88;4859989;29;20431;-82
2024/04/04 05:11:03;;;;;;;4.23;2.00;;;;;;;10.81;100.00;100201.44;4863402;29;20407;-80
2024/04/04 05:13:31;;;;;;;5.50;1.47;;;;;;;10.83;100.00;100203.94;4868506;29;20442;-80
2024/04/04 05:15:58;;;;;;;1.37;0.93;;;;;;;11.01;100.00;100206.69;4868883;29;20478;-80
2024/04/04 05:18:27;;;;;;;2.27;1.00;;;;;;;11.01;100.00;100208.56;4868656;29;20468;-81
2024/04/04 05:21:01;;;;;;;1.67;1.57;;;;;;;11.12;100.00;100205.97;4863034;29;20457;-80
2024/04/04 05:23:30;;;;;;;0.93;0.80;;;;;;;11.32;100.00;100208.50;4850376;29;20468;-81
2024/04/04 05:25:57;;;;;;;1.80;1.53;;;;;;;11.41;100.00;100209.88;4851630;29;20446;-82
2024/04/04 05:28:29;;;;;;;1.30;0.80;;;;;;;11.43;100.00;100209.63;4867268;29;20578;-82
2024/04/04 05:30:56;;;;;;;1.63;1.53;;;;;;;11.44;100.00;100216.72;4869562;29;20439;-82
2024/04/04 05:33:25;;;;;;;1.00;0.83;;;;;;;11.42;100.00;100214.25;4870215;29;20950;-82
2024/04/04 05:35:53;;;;;;;1.73;1.27;;;;;;;11.41;100.00;100218.00;4838519;29;20476;-83
2024/04/04 05:38:21;;;;;;;3.83;2.60;;;;;;;11.49;100.00;100228.53;4853443;29;20391;-82
2024/04/04 05:40:50;;;;;;;2.10;0.77;;;;;;;11.28;100.00;100226.22;4853745;29;20801;-82
2024/04/04 05:43:17;;;;;;;1.23;0.93;;;;;;;11.25;100.00;100229.41;4856656;29;20517;-81
2024/04/04 05:45:45;;;;;;;1.40;1.13;;;;;;;11.32;100.00;100231.00;4889566;29;20444;-83
2024/04/04 05:48:13;;;;;;;1.50;1.13;;;;;;;11.38;100.00;100231.97;4863393;29;20399;-83
2024/04/04 05:50:40;;;;;;;2.10;1.10;;;;;;;11.27;100.00;100235.44;4861430;29;20417;-81
2024/04/04 05:53:08;;;;;;;1.97;1.00;;;;;;;11.39;100.00;100235.50;4850746;29;20444;-82
2024/04/04 05:55:35;;;;;;;1.67;0.90;;;;;;;11.35;100.00;100229.72;4848952;29;20456;-81
2024/04/04 05:58:04;;;;;;;0.90;0.60;;;;;;;11.54;100.00;100236.81;4863324;29;20441;-81
2024/04/04 06:00:33;;;;;;;2.83;1.60;;;;;;;11.60;100.00;100238.63;4853561;29;20437;-81
2024/04/04 06:03:02;;;;;;;0.90;0.60;;;;;;;11.77;100.00;100237.00;4857063;29;20508;-80
2024/04/04 06:05:29;;;;;;;2.47;2.27;;;;;;;11.89;100.00;100233.56;4864373;29;20483;-81
2024/04/04 06:07:56;;;;;;;1.50;1.00;;;;;;;12.03;100.00;100221.50;4862517;29;20448;-83
2024/04/04 06:10:23;;;;;;;4.90;1.20;;;;;;;12.11;100.00;100230.13;4858885;29;20874;-81
2024/04/04 06:12:51;;;;;;;2.50;1.00;;;;;;;12.24;100.00;100234.56;4848057;29;20920;-81
2024/04/04 06:15:20;;;;;;;6.53;1.60;;;;;;;12.29;100.00;100225.75;4849744;29;20435;-81
2024/04/04 06:17:48;;;;;;;1.57;1.23;;;;;;;12.22;98.43;100225.00;4849727;29;20430;-81
2024/04/04 06:20:14;;;;;;;1.17;0.77;;;;;;;12.07;98.09;100228.94;4861633;29;20436;-83
2024/04/04 06:22:43;;;;;;;1.33;1.23;;;;;;;12.15;98.43;100231.31;4857730;29;20415;-82
2024/04/04 06:25:10;;;;;;;2.47;1.07;;;;;;;12.31;97.91;100231.75;4862081;29;20515;-82
2024/04/04 06:27:37;;;;;;;3.50;1.20;;;;;;;12.48;96.93;100220.06;4862280;29;20472;-82
2024/04/04 06:30:06;;;;;;;2.60;1.40;;;;;;;12.12;96.16;100225.53;4862684;29;20414;-82
2024/04/04 06:32:36;;;;;;;1.67;0.80;;;;;;;12.13;97.05;100227.19;4880953;29;20417;-82
2024/04/04 06:35:09;;;;;;;1.33;0.80;;;;;;;12.03;95.79;100224.19;4867227;29;20435;-83
2024/04/04 06:37:41;;;;;;;1.00;0.80;;;;;;;12.23;95.94;100222.06;4866858;29;20515;-82
2024/04/04 06:40:11;;;;;;;1.00;0.80;;;;;;;12.47;94.79;100226.53;4855838;29;20426;-83
2024/04/04 06:45:36;;;;;;;1.83;1.00;;;;;;;12.92;90.12;100228.78;4846723;29;20458;-82
2024/04/04 06:48:05;;;;;;;1.30;0.80;;;;;;;12.71;90.22;100230.13;4848124;29;20415;-82
2024/04/04 06:50:32;;;;;;;1.97;1.13;;;;;;;12.70;90.82;100233.06;4861477;29;20414;-82
2024/04/04 06:52:59;;;;;;;0.97;0.67;;;;;;;12.92;91.69;100232.31;4862656;29;20432;-82
2024/04/04 06:55:27;;;;;;;2.83;1.17;;;;;;;12.99;90.77;100237.63;4847050;29;20506;-82
2024/04/04 06:57:54;;;;;;;1.57;0.80;;;;;;;13.12;89.20;100245.59;4867133;29;20492;-82
2024/04/04 07:00:22;;;;;;;2.83;0.97;;;;;;;13.18;89.56;100244.66;4850785;29;20453;-83
2024/04/04 07:02:49;;;;;;;1.30;1.00;;;;;;;13.23;86.89;100242.06;4863359;29;20436;-82
2024/04/04 07:05:36;;;;;;;1.23;0.87;;;;;;;13.30;86.86;100240.06;4867543;29;20601;-84
2024/04/04 07:08:08;;;;;;;4.50;0.80;;;;;;;13.54;85.75;100242.78;4858076;29;20407;-84
2024/04/04 07:10:36;;;;;;;1.00;0.60;;;;;;;13.72;85.49;100248.09;4838505;29;20905;-84
2024/04/04 07:13:03;;;;;;;1.43;1.00;;;;;;;13.85;83.53;100243.22;4873221;29;20430;-84
2024/04/04 07:15:31;;;;;;;1.13;0.67;;;;;;;13.74;82.30;100235.09;4864297;29;20441;-83
2024/04/04 07:17:58;;;;;;;1.00;0.70;;;;;;;13.61;81.36;100229.88;4862201;29;20425;-83
2024/04/04 07:20:29;;;;;;;1.30;1.00;;;;;;;13.72;82.81;100242.63;4852407;29;20414;-83
2024/04/04 07:22:56;;;;;;;1.90;1.20;;;;;;;13.65;83.20;100237.31;4847097;29;20452;-83
2024/04/04 07:25:24;;;;;;;1.00;0.70;;;;;;;13.78;81.56;100241.69;4851339;29;20470;-83
2024/04/04 07:27:51;;;;;;;1.20;0.63;;;;;;;13.78;81.15;100252.56;4850729;29;20944;-83
2024/04/04 07:30:19;;;;;;;1.13;0.80;;;;;;;13.89;80.65;100249.00;4837504;29;21009;-84
2024/04/04 07:32:46;;;;;;;1.60;1.03;;;;;;;14.00;79.80;100239.97;4838187;29;20427;-84
2024/04/04 07:35:15;;;;;;;1.60;1.00;;;;;;;14.14;80.09;100252.25;4855392;29;20463;-84
2024/04/04 07:37:43;;;;;;;0.90;0.73;;;;;;;14.22;77.68;100243.72;4855082;29;20426;-84
2024/04/04 07:40:13;;;;;;;3.30;1.00;;;;;;;14.22;77.84;100238.28;4867583;29;20430;-85
2024/04/04 07:42:40;;;;;;;1.23;0.83;;;;;;;14.23;77.22;100245.34;4869548;29;20418;-81
2024/04/04 07:45:10;;;;;;;1.40;0.90;;;;;;;14.31;77.12;100242.28;4870061;29;20986;-83
2024/04/04 07:47:37;;;;;;;2.53;1.10;;;;;;;14.09;76.97;100243.97;4866774;29;20415;-81
2024/04/04 07:50:07;;;;;;;1.73;1.30;;;;;;;14.39;75.21;100248.41;4866944;29;20440;-81
2024/04/04 07:52:34;;;;;;;1.00;0.80;;;;;;;14.53;74.44;100245.16;4860552;29;20487;-82
2024/04/04 07:55:03;;;;;;;1.20;0.80;;;;;;;14.95;73.66;100244.84;4850491;29;20467;-82
2024/04/04 07:57:31;;;;;;;1.27;1.00;;;;;;;15.04;71.70;100251.53;4854775;29;20436;-82
2024/04/04 07:59:59;;;;;;;0.90;0.53;;;;;;;14.72;72.07;100253.94;4861030;29;20423;-83
2024/04/04 08:02:26;;;;;;;3.80;0.93;;;;;;;14.81;72.32;100251.66;4860828;29;20411;-82
2024/04/04 08:04:54;;;;;;;4.77;1.27;;;;;;;14.93;70.84;100249.69;4870308;29;20551;-82
2024/04/04 08:07:21;;;;;;;1.33;0.70;;;;;;;14.95;69.97;100248.38;4855646;29;20460;-81
2024/04/04 08:09:49;;;;;;;1.43;0.90;;;;;;;14.66;70.86;100249.50;4863369;29;20455;-80
2024/04/04 08:12:18;;;;;;;4.63;1.17;;;;;;;14.66;72.13;100257.66;4862907;29;20466;-81
2024/04/04 08:14:46;;;;;;;3.00;1.13;;;;;;;14.75;71.05;100253.47;4861399;29;20528;-82
2024/04/04 08:17:13;;;;;;;3.17;0.70;;;;;;;14.88;70.68;100260.50;4871028;29;20457;-81
2024/04/04 08:19:41;;;;;;;1.30;0.93;;;;;;;14.79;69.73;100251.91;4857233;29;20444;-83
2024/04/04 08:22:10;;;;;;;3.23;0.87;;;;;;;15.04;69.63;100252.34;4854990;29;20431;-81
2024/04/04 08:24:38;;;;;;;1.23;0.83;;;;;;;15.18;68.68;100247.41;4851575;29;20472;-82
2024/04/04 08:27:05;;;;;;;1.00;0.80;;;;;;;15.16;68.90;100244.06;4860842;29;20461;-82
2024/04/04 08:29:35;;;;;;;1.40;0.80;;;;;;;15.06;68.51;100235.75;4862172;29;20440;-82
2024/04/04 08:32:03;;;;;;;6.50;0.87;;;;;;;15.10;67.72;100239.66;4862084;29;20410;-84
2024/04/04 08:34:32;;;;;;;1.20;0.93;;;;;;;15.01;68.21;100241.09;4868154;29;20439;-86
2024/04/04 08:36:59;;;;;;;1.00;0.60;;;;;;;15.25;66.91;100225.44;4855590;29;20870;-85
2024/04/04 08:39:27;;;;;;;1.10;0.67;;;;;;;15.34;66.92;100232.94;4867670;29;20415;-82
2024/04/04 08:41:54;;;;;;;0.90;0.60;;;;;;;15.38;65.80;100227.81;4864035;29;20460;-83
2024/04/04 08:44:22;;;;;;;1.00;0.90;;;;;;;15.79;65.57;100224.59;4869633;29;20441;-82
2024/04/04 08:46:52;;;;;;;1.20;0.87;;;;;;;15.87;63.16;100224.19;4839091;29;21008;-83
2024/04/04 08:49:22;;;;;;;1.00;0.70;;;;;;;15.57;61.64;100226.50;4835977;29;20458;-83
2024/04/04 08:51:51;;;;;;;7.33;1.00;;;;;;;15.64;61.91;100221.66;4853929;29;20449;-85
2024/04/04 08:54:21;;;;;;;0.97;0.87;;;;;;;15.55;63.04;100231.34;4854205;29;20806;-82
2024/04/04 08:56:49;;;;;;;0.90;0.70;;;;;;;15.59;62.20;100227.88;4848153;29;20456;-83
2024/04/04 08:59:18;;;;;;;0.80;0.50;;;;;;;15.61;62.23;100231.19;4853368;29;20467;-83
2024/04/04 09:01:46;;;;;;;1.20;0.60;;;;;;;15.70;61.52;100234.31;4853028;29;20471;-84
2024/04/04 09:04:26;;;;;;;0.97;0.70;;;;;;;15.88;61.24;100239.47;4837379;29;20419;-83
2024/04/04 09:06:55;;;;;;;1.10;0.80;;;;;;;15.80;62.25;100229.00;4849855;29;20909;-81
2024/04/04 09:09:24;;;;;;;3.20;1.73;;;;;;;16.04;61.95;100230.41;4831928;29;20420;-82
2024/04/04 09:11:51;;;;;;;2.60;0.77;;;;;;;16.40;62.03;100222.63;4854345;29;20438;-81
2024/04/04 09:14:19;;;;;;;1.00;0.70;;;;;;;16.97;59.81;100227.59;4842103;29;20452;-82
2024/04/04 09:16:46;;;;;;;1.00;0.70;;;;;;;17.44;58.36;100223.03;4846136;29;20485;-82
2024/04/04 09:19:15;;;;;;;1.30;1.07;;;;;;;17.36;57.94;100221.63;4854337;29;20436;-81
2024/04/04 09:21:44;;;;;;;0.90;0.60;;;;;;;17.13;57.24;100221.16;4875045;29;20398;-81
2024/04/04 09:24:39;;;;;;;1.17;0.70;;;;;;;17.34;57.25;100221.03;4846493;29;20428;-82
2024/04/04 09:27:09;;;;;;;1.80;1.10;;;;;;;18.07;54.94;100210.25;4840395;29;20794;-81
2024/04/04 09:29:40;;;;;;;1.30;0.60;;;;;;;17.93;53.91;100214.56;4852303;29;20414;-81
2024/04/04 09:32:07;;;;;;;1.17;0.63;;;;;;;18.24;53.96;100210.88;4867974;29;20456;-81
2024/04/04 09:34:36;;;;;;;1.67;0.67;;;;;;;17.94;54.09;100217.06;4867918;29;20455;-81
2024/04/04 09:37:05;;;;;;;1.30;0.60;;;;;;;18.00;53.62;100217.91;4869714;29;20425;-80
2024/04/04 09:39:36;;;;;;;1.53;0.60;;;;;;;17.44;54.03;100206.63;4852404;29;20508;-80
2024/04/04 09:42:06;;;;;;;5.27;2.07;;;;;;;17.28;54.88;100211.16;4865363;29;20425;-81
2024/04/04 09:44:34;;;;;;;7.30;4.80;;;;;;;17.59;53.82;100206.75;4868077;29;20523;-80
2024/04/04 09:47:03;;;;;;;4.23;1.90;;;;;;;17.47;53.24;100206.09;4858753;29;20435;-79
2024/04/04 09:49:32;;;;;;;2.90;0.93;;;;;;;17.54;52.04;100201.22;4867429;29;20432;-79
2024/04/04 09:52:01;;;;;;;1.00;0.67;;;;;;;17.64;51.89;100205.94;4867307;29;20447;-80
2024/04/04 09:54:31;;;;;;;0.90;0.50;;;;;;;17.69;51.34;100219.66;4869636;29;20436;-80
2024/04/04 09:56:59;;;;;;;1.53;0.77;;;;;;;17.53;51.93;100215.97;4866234;29;20461;-81
2024/04/04 09:59:28;;;;;;;2.23;1.17;;;;;;;17.51;52.56;100206.41;4859046;29;20418;-81
2024/04/04 10:02:02;;;;;;;1.10;0.70;;;;;;;17.09;52.40;100212.66;4853277;29;20423;-81
2024/04/04 10:04:34;;;;;;;0.90;0.57;;;;;;;17.04;54.48;100211.81;4859644;29;20489;-80
2024/04/04 10:07:01;;;;;;;1.20;0.80;;;;;;;16.67;54.46;100207.09;4859910;29;20494;-81
2024/04/04 10:09:39;;;;;;;3.47;0.77;;;;;;;16.70;53.98;100213.97;4850632;29;20433;-79
2024/04/04 10:12:12;;;;;;;1.20;0.60;;;;;;;16.58;55.73;100210.53;4855835;29;20926;-82
2024/04/04 10:14:51;;;;;;;1.00;0.67;;;;;;;16.53;56.13;100211.28;4847794;29;20454;-82
2024/04/04 10:17:17;;;;;;;2.33;1.70;;;;;;;16.10;57.65;100206.72;4850419;29;20450;-82
2024/04/04 10:19:48;;;;;;;1.07;0.80;;;;;;;16.08;59.19;100204.25;4855856;29;20415;-84
2024/04/04 10:22:16;;;;;;;1.90;1.13;;;;;;;15.96;59.22;100195.38;4846808;29;20877;-84
2024/04/04 10:24:46;;;;;;;3.47;1.10;;;;;;;15.95;59.60;100199.19;4815727;29;20487;-84
2024/04/04 10:27:13;;;;;;;1.73;0.70;;;;;;;16.13;59.07;100186.28;4843124;29;20684;-84
2024/04/04 10:29:42;;;;;;;0.93;0.57;;;;;;;16.16;59.69;100186.59;4835108;29;20513;-84
2024/04/04 10:32:10;;;;;;;1.00;0.67;;;;;;;16.03;60.59;100184.25;4849748;29;20415;-84
2024/04/04 10:34:38;;;;;;;0.90;0.60;;;;;;;16.35;59.80;100177.00;4850056;29;20559;-82
2024/04/04 10:37:05;;;;;;;1.73;0.93;;;;;;;16.53;57.45;100183.97;4849509;29;20463;-84
2024/04/04 10:39:33;;;;;;;1.23;0.63;;;;;;;16.50;57.53;100185.34;4850357;29;20524;-83
2024/04/04 10:42:01;;;;;;;1.47;0.70;;;;;;;16.22;58.31;100187.47;4835407;29;20411;-84
2024/04/04 10:44:29;;;;;;;1.10;0.40;;;;;;;16.24;59.92;100179.84;4864662;29;20595;-85
2024/04/04 10:46:58;;;;;;;2.07;0.87;;;;;;;16.27;63.09;100173.88;4870115;29;20443;-85
2024/04/04 10:49:30;;;;;;;2.70;1.17;;;;;;;16.47;63.41;100174.09;4871308;29;20418;-84
2024/04/04 10:51:59;;;;;;;1.00;0.60;;;;;;;16.46;64.56;100172.44;4875709;29;20411;-85
2024/04/04 10:54:28;;;;;;;1.20;0.70;;;;;;;16.17;68.04;100173.78;4858088;29;20411;-85
2024/04/04 10:56:57;;;;;;;1.37;0.80;;;;;;;15.87;72.10;100172.34;4853435;29;20590;-84
2024/04/04 10:59:30;;;;;;;1.00;0.63;;;;;;;15.52;73.18;100166.44;4856923;29;20421;-84
2024/04/04 11:02:04;;;;;;;0.97;0.57;;;;;;;15.06;76.10;100170.34;4856879;29;20433;-85
2024/04/04 11:04:36;;;;;;;1.90;0.80;;;;;;;14.89;78.17;100175.81;4858053;29;20454;-84
2024/04/04 11:07:05;;;;;;;1.20;1.03;;;;;;;14.75;81.28;100166.31;4853402;29;20440;-85
2024/04/04 11:09:33;;;;;;;3.33;0.70;;;;;;;14.63;81.67;100160.94;4848519;29;20440;-84
2024/04/04 11:12:00;;;;;;;3.43;1.33;;;;;;;14.44;85.02;100164.94;4845669;29;20463;-85
2024/04/04 11:14:30;;;;;;;1.53;0.93;;;;;;;14.55;86.88;100161.34;4868048;29;20398;-84
2024/04/04 11:16:57;;;;;;;2.97;0.90;;;;;;;14.52;86.65;100166.47;4870512;29;20402;-83
2024/04/04 11:19:26;;;;;;;0.90;0.50;;;;;;;14.13;88.55;100160.84;4856839;29;20427;-84
2024/04/04 11:22:01;;;;;;;2.20;0.90;;;;;;;13.81;91.29;100163.19;4851941;29;20796;-84
2024/04/04 11:24:38;;;;;;;1.67;0.90;;;;;;;13.74;93.56;100164.38;4871028;29;20456;-84
2024/04/04 11:27:06;;;;;;;1.63;0.80;;;;;;;13.76;93.92;100151.38;4846263;29;20475;-84
2024/04/04 11:29:35;;;;;;;2.50;0.93;;;;;;;13.74;94.83;100150.78;4855805;29;20406;-85
2024/04/04 11:32:03;;;;;;;1.20;0.80;;;;;;;13.63;94.59;100140.78;4831822;29;20479;-82